Frolovo, Russia
Current Conditions -  °F | °C
As of 7:30 PM on Saturday 22 Nov 2014 (Local Time) from URWW Reporting Station
Scattered Clouds Scattered Clouds  
Wind Chill:   Ceiling: Unl
Heat Index: 18°   Visibility: 6mi
Dew Point: 16°   Wind: 13mph
Humidity: 93%   Direction: 30°NNE
Pressure: 30.3"   Gusts: NA
Location:  49.77°N, 43.65°E
Report Text: URWW 221630Z 03006MPS 9999 SCT004 M08/M09 Q1026 NOSIG RMK OBSTOBSC 11CLRD70
Loading
Personal Weather Stations






























Interactive Weather Map New forecast layout! Learn more

10-Day Weather Forecast

Advertisements
Track Severe Weather on mobile